Time;durP1;ratioP1;P1;durP2;ratioP2;P2;SDS_P1;SDS_P2;PMS_P1;PMS_P2;Temp;Humidity;BMP_temperature;BMP_pressure;BME280_temperature;BME280_humidity;BME280_pressure;Samples;Min_cycle;Max_cycle;Signal;HPM_P1;HPM_P2
2020/12/11 00:02:18;;;;;;;;;;;;;;;;;;5044489;28;20407;-84
2020/12/11 00:04:44;;;;;;;;;;;;;;;;;;5024357;28;20901;-87
2020/12/11 00:07:11;;;;;;;;;;;;;;;;;;5027100;28;20398;-84
2020/12/11 00:09:37;;;;;;;;;;;;;;;;;;5037289;28;20378;-85
2020/12/11 00:12:03;;;;;;;;;;;;;;;;;;5035627;28;20429;-84
2020/12/11 00:14:30;;;;;;;;;;;;;;;;;;5039139;28;20454;-85
2020/12/11 00:16:56;;;;;;;;;;;;;;;;;;5044706;28;20394;-85
2020/12/11 00:19:22;;;;;;;;;;;;;;;;;;5048450;28;20421;-85
2020/12/11 00:21:49;;;;;;;;;;;;;;;;;;5055532;28;20437;-83
2020/12/11 00:24:15;;;;;;;;;;;;;;;;;;5057716;28;20391;-84
2020/12/11 00:26:42;;;;;;;;;;;;;;;;;;5052453;28;20393;-84
2020/12/11 00:29:08;;;;;;;;;;;;;;;;;;5049788;28;20396;-82
2020/12/11 00:31:34;;;;;;;;;;;;;;;;;;5053297;28;20406;-84
2020/12/11 00:34:01;;;;;;;;;;;;;;;;;;5035214;28;20405;-84
2020/12/11 00:36:27;;;;;;;;;;;;;;;;;;5036699;28;20387;-85
2020/12/11 00:38:54;;;;;;;;;;;;;;;;;;5034173;28;20387;-85
2020/12/11 00:41:20;;;;;;;;;;;;;;;;;;5042289;28;20407;-83
2020/12/11 00:43:46;;;;;;;;;;;;;;;;;;5027635;28;20416;-84
2020/12/11 00:46:13;;;;;;;;;;;;;;;;;;5025999;28;20393;-85
2020/12/11 00:48:39;;;;;;;;;;;;;;;;;;5037690;28;20375;-84
2020/12/11 00:51:05;;;;;;;;;;;;;;;;;;5052869;28;20406;-84
2020/12/11 00:53:32;;;;;;;;;;;;;;;;;;5049794;28;20399;-85
2020/12/11 00:55:58;;;;;;;;;;;;;;;;;;5052027;28;20375;-83
2020/12/11 00:58:24;;;;;;;;;;;;;;;;;;5048492;28;20449;-83
2020/12/11 01:00:51;;;;;;;;;;;;;;;;;;5058402;28;20379;-86
2020/12/11 01:03:17;;;;;;;;;;;;;;;;;;5059293;28;20371;-85
2020/12/11 01:05:44;;;;;;;;;;;;;;;;;;5059778;28;20378;-86
2020/12/11 01:08:10;;;;;;;;;;;;;;;;;;5059320;28;20391;-85
2020/12/11 01:10:36;;;;;;;;;;;;;;;;;;5057729;28;20396;-85
2020/12/11 01:13:03;;;;;;;;;;;;;;;;;;5040512;28;20411;-85
2020/12/11 01:15:29;;;;;;;;;;;;;;;;;;5040767;28;20856;-86
2020/12/11 01:17:55;;;;;;;;;;;;;;;;;;5034638;28;20385;-85
2020/12/11 01:20:22;;;;;;;;;;;;;;;;;;5027545;28;20429;-85
2020/12/11 01:22:50;;;;;;;;;;;;;;;;;;5017948;28;20894;-85
2020/12/11 01:25:17;;;;;;;;;;;;;;;;;;5017538;28;20397;-85
2020/12/11 01:27:43;;;;;;;;;;;;;;;;;;5017831;28;20394;-85
2020/12/11 01:30:09;;;;;;;;;;;;;;;;;;5032259;28;20439;-82
2020/12/11 01:32:36;;;;;;;;;;;;;;;;;;5043541;28;20412;-86
2020/12/11 01:35:02;;;;;;;;;;;;;;;;;;5024235;28;20418;-85
2020/12/11 01:37:28;;;;;;;;;;;;;;;;;;5043697;28;20909;-85
2020/12/11 01:39:55;;;;;;;;;;;;;;;;;;5047071;28;20384;-85
2020/12/11 01:42:21;;;;;;;;;;;;;;;;;;5023948;28;20399;-84
2020/12/11 01:44:48;;;;;;;;;;;;;;;;;;5040826;28;20387;-85
2020/12/11 01:47:14;;;;;;;;;;;;;;;;;;5030084;28;20399;-85
2020/12/11 01:49:41;;;;;;;;;;;;;;;;;;5030578;28;20394;-86
2020/12/11 01:52:07;;;;;;;;;;;;;;;;;;5041047;28;20419;-86
2020/12/11 01:54:33;;;;;;;;;;;;;;;;;;5028921;28;20394;-86
2020/12/11 01:57:00;;;;;;;;;;;;;;;;;;5039778;28;20386;-85
2020/12/11 01:59:26;;;;;;;;;;;;;;;;;;5046843;28;20383;-84
2020/12/11 02:01:53;;;;;;;;;;;;;;;;;;5048349;28;20398;-84
2020/12/11 02:04:19;;;;;;;;;;;;;;;;;;5043065;28;20391;-85
2020/12/11 02:06:45;;;;;;;;;;;;;;;;;;5031147;28;20399;-85
2020/12/11 02:09:12;;;;;;;;;;;;;;;;;;5019669;28;20793;-86
2020/12/11 02:11:38;;;;;;;;;;;;;;;;;;5019770;28;20417;-86
2020/12/11 02:14:04;;;;;;;;;;;;;;;;;;5030835;28;20456;-86
2020/12/11 02:16:31;;;;;;;;;;;;;;;;;;5020474;28;20821;-86
2020/12/11 02:18:57;;;;;;;;;;;;;;;;;;5020849;28;20453;-86
2020/12/11 02:21:24;;;;;;;;;;;;;;;;;;5035301;28;20452;-86
2020/12/11 02:23:50;;;;;;;;;;;;;;;;;;5042395;28;20401;-86
2020/12/11 02:26:16;;;;;;;;;;;;;;;;;;5029120;28;20389;-85
2020/12/11 02:28:43;;;;;;;;;;;;;;;;;;5035103;28;20387;-85
2020/12/11 02:31:09;;;;;;;;;;;;;;;;;;5036089;28;20457;-86
2020/12/11 02:33:35;;;;;;;;;;;;;;;;;;5034514;28;20411;-86
2020/12/11 02:36:02;;;;;;;;;;;;;;;;;;5037675;28;20429;-86
2020/12/11 02:38:28;;;;;;;;;;;;;;;;;;5022604;28;20779;-84
2020/12/11 02:40:55;;;;;;;;;;;;;;;;;;5024838;28;20444;-85
2020/12/11 02:43:22;;;;;;;;;;;;;;;;;;5017441;28;20400;-85
2020/12/11 02:45:48;;;;;;;;;;;;;;;;;;5022465;28;20383;-85
2020/12/11 02:48:14;;;;;;;;;;;;;;;;;;5037522;28;20399;-85
2020/12/11 02:50:41;;;;;;;;;;;;;;;;;;5037190;28;20898;-86
2020/12/11 02:53:07;;;;;;;;;;;;;;;;;;5022028;28;20406;-86
2020/12/11 02:55:34;;;;;;;;;;;;;;;;;;5017325;28;20390;-86
2020/12/11 02:58:00;;;;;;;;;;;;;;;;;;5023771;28;20389;-86
2020/12/11 03:00:26;;;;;;;;;;;;;;;;;;5036496;28;20842;-85
2020/12/11 03:02:53;;;;;;;;;;;;;;;;;;5022955;28;20454;-86
2020/12/11 03:05:19;;;;;;;;;;;;;;;;;;5038944;28;20398;-83
2020/12/11 03:07:45;;;;;;;;;;;;;;;;;;5037054;28;20389;-85
2020/12/11 03:10:12;;;;;;;;;;;;;;;;;;5023031;28;20393;-86
2020/12/11 03:12:38;;;;;;;;;;;;;;;;;;5022731;28;20413;-86
2020/12/11 03:15:05;;;;;;;;;;;;;;;;;;5032486;28;20405;-86
2020/12/11 03:17:31;;;;;;;;;;;;;;;;;;5023552;28;20393;-85
2020/12/11 03:19:57;;;;;;;;;;;;;;;;;;5039326;28;20375;-86
2020/12/11 03:22:24;;;;;;;;;;;;;;;;;;5040587;28;20407;-85
2020/12/11 03:24:50;;;;;;;;;;;;;;;;;;5042183;28;20379;-85
2020/12/11 03:27:16;;;;;;;;;;;;;;;;;;5035463;28;20406;-85
2020/12/11 03:29:43;;;;;;;;;;;;;;;;;;5032601;28;20389;-85
2020/12/11 03:32:09;;;;;;;;;;;;;;;;;;5035498;28;20411;-86
2020/12/11 03:34:36;;;;;;;;;;;;;;;;;;5040075;28;20410;-85
2020/12/11 03:37:02;;;;;;;;;;;;;;;;;;5045812;28;20393;-86
2020/12/11 03:39:28;;;;;;;;;;;;;;;;;;5043481;28;20387;-85
2020/12/11 03:41:55;;;;;;;;;;;;;;;;;;5039758;28;20423;-85
2020/12/11 03:44:21;;;;;;;;;;;;;;;;;;5038945;28;20410;-84
2020/12/11 03:46:48;;;;;;;;;;;;;;;;;;5039448;28;20395;-84
2020/12/11 03:49:14;;;;;;;;;;;;;;;;;;5035163;28;20394;-84
2020/12/11 03:51:40;;;;;;;;;;;;;;;;;;5039793;28;20411;-82
2020/12/11 03:54:07;;;;;;;;;;;;;;;;;;5023974;28;20405;-84
2020/12/11 03:56:33;;;;;;;;;;;;;;;;;;5025997;28;20375;-85
2020/12/11 03:59:00;;;;;;;;;;;;;;;;;;5041760;28;20805;-85
2020/12/11 04:01:26;;;;;;;;;;;;;;;;;;5043223;28;20419;-85
2020/12/11 04:03:54;;;;;;;;;;;;;;;;;;5086751;22;20414;-86
2020/12/11 04:06:21;;;;;;;;;;;;;;;;;;5046615;28;20387;-86
2020/12/11 04:08:47;;;;;;;;;;;;;;;;;;5047072;28;20391;-87
2020/12/11 04:11:13;;;;;;;;;;;;;;;;;;5047396;28;20391;-86
2020/12/11 04:13:40;;;;;;;;;;;;;;;;;;5041194;28;20399;-85
2020/12/11 04:16:06;;;;;;;;;;;;;;;;;;5033288;28;20428;-85
2020/12/11 04:18:33;;;;;;;;;;;;;;;;;;5032299;28;20761;-85
2020/12/11 04:20:59;;;;;;;;;;;;;;;;;;5031923;28;20383;-86
2020/12/11 04:23:25;;;;;;;;;;;;;;;;;;5042132;28;20442;-86
2020/12/11 04:25:52;;;;;;;;;;;;;;;;;;5039260;28;20387;-86
2020/12/11 04:28:18;;;;;;;;;;;;;;;;;;5032091;28;21076;-85
2020/12/11 04:30:44;;;;;;;;;;;;;;;;;;5035553;28;20433;-85
2020/12/11 04:33:11;;;;;;;;;;;;;;;;;;5028327;28;20410;-85
2020/12/11 04:35:37;;;;;;;;;;;;;;;;;;5039700;28;20411;-85
2020/12/11 04:38:04;;;;;;;;;;;;;;;;;;5029810;28;20386;-85
2020/12/11 04:40:30;;;;;;;;;;;;;;;;;;5030649;28;20389;-85
2020/12/11 04:42:56;;;;;;;;;;;;;;;;;;5048607;28;20399;-85
2020/12/11 04:45:23;;;;;;;;;;;;;;;;;;5042136;28;20383;-85
2020/12/11 04:47:49;;;;;;;;;;;;;;;;;;5040903;28;20387;-85
2020/12/11 04:50:15;;;;;;;;;;;;;;;;;;5041394;28;20390;-85
2020/12/11 04:52:42;;;;;;;;;;;;;;;;;;5044272;28;20431;-85
2020/12/11 04:55:08;;;;;;;;;;;;;;;;;;5026126;28;20424;-85
2020/12/11 04:57:35;;;;;;;;;;;;;;;;;;5029851;28;20397;-84
2020/12/11 05:00:01;;;;;;;;;;;;;;;;;;5033697;28;20387;-84
2020/12/11 05:02:28;;;;;;;;;;;;;;;;;;5023523;28;20426;-85
2020/12/11 05:04:54;;;;;;;;;;;;;;;;;;5033951;28;20410;-84
2020/12/11 05:07:21;;;;;;;;;;;;;;;;;;5035442;28;20387;-84
2020/12/11 05:09:47;;;;;;;;;;;;;;;;;;5044307;28;20387;-86
2020/12/11 05:12:14;;;;;;;;;;;;;;;;;;5054131;28;20403;-85
2020/12/11 05:14:41;;;;;;;;;;;;;;;;;;5027010;28;20448;-85
2020/12/11 05:17:07;;;;;;;;;;;;;;;;;;5023824;28;20392;-85
2020/12/11 05:19:34;;;;;;;;;;;;;;;;;;5035582;28;20401;-85
2020/12/11 05:22:00;;;;;;;;;;;;;;;;;;5023388;28;20786;-85
2020/12/11 05:24:26;;;;;;;;;;;;;;;;;;5032120;28;20476;-85
2020/12/11 05:26:53;;;;;;;;;;;;;;;;;;5019997;28;20393;-85
2020/12/11 05:29:19;;;;;;;;;;;;;;;;;;5027958;28;20469;-85
2020/12/11 05:31:46;;;;;;;;;;;;;;;;;;5033104;28;20408;-85
2020/12/11 05:34:12;;;;;;;;;;;;;;;;;;5029447;28;20425;-85
2020/12/11 05:36:39;;;;;;;;;;;;;;;;;;5022060;28;20466;-85
2020/12/11 05:39:05;;;;;;;;;;;;;;;;;;5031270;28;20440;-85
2020/12/11 05:41:35;;;;;;;;;;;;;;;;;;5041435;28;20418;-84
2020/12/11 05:44:01;;;;;;;;;;;;;;;;;;5030699;28;20385;-84
2020/12/11 05:46:27;;;;;;;;;;;;;;;;;;5026929;28;20390;-84
2020/12/11 05:48:54;;;;;;;;;;;;;;;;;;5023564;28;20386;-85
2020/12/11 05:51:23;;;;;;;;;;;;;;;;;;5024032;28;20464;-85
2020/12/11 05:53:49;;;;;;;;;;;;;;;;;;5024001;28;20413;-85
2020/12/11 05:56:15;;;;;;;;;;;;;;;;;;5032226;28;20375;-84
2020/12/11 05:58:42;;;;;;;;;;;;;;;;;;5025261;28;20411;-85
2020/12/11 06:01:11;;;;;;;;;;;;;;;;;;5034316;28;20874;-85
2020/12/11 06:03:38;;;;;;;;;;;;;;;;;;5031384;28;20901;-84
2020/12/11 06:06:05;;;;;;;;;;;;;;;;;;5025996;28;20393;-83
2020/12/11 06:08:31;;;;;;;;;;;;;;;;;;5032969;28;20731;-84
2020/12/11 06:10:57;;;;;;;;;;;;;;;;;;5034256;28;20380;-84
2020/12/11 06:13:24;;;;;;;;;;;;;;;;;;5035111;28;20409;-85
2020/12/11 06:15:50;;;;;;;;;;;;;;;;;;5033878;28;20767;-85
2020/12/11 06:18:16;;;;;;;;;;;;;;;;;;5027488;28;20391;-84
2020/12/11 06:20:45;;;;;;;;;;;;;;;;;;5030803;28;20390;-85
2020/12/11 06:23:11;;;;;;;;;;;;;;;;;;5028119;28;20418;-84
2020/12/11 06:25:38;;;;;;;;;;;;;;;;;;5031769;28;20433;-84
2020/12/11 06:28:04;;;;;;;;;;;;;;;;;;5040249;28;20843;-85
2020/12/11 06:30:31;;;;;;;;;;;;;;;;;;5041405;28;20383;-85
2020/12/11 06:32:57;;;;;;;;;;;;;;;;;;5035903;28;20411;-86
2020/12/11 06:35:23;;;;;;;;;;;;;;;;;;5042165;28;20414;-85
2020/12/11 06:37:50;;;;;;;;;;;;;;;;;;5033834;28;20389;-87
2020/12/11 06:40:17;;;;;;;;;;;;;;;;;;5032433;28;20396;-85
2020/12/11 06:42:45;;;;;;;;;;;;;;;;;;5029937;28;20942;-85
2020/12/11 06:45:12;;;;;;;;;;;;;;;;;;5031905;28;20391;-84
2020/12/11 06:47:38;;;;;;;;;;;;;;;;;;5031809;28;20389;-84
2020/12/11 06:50:05;;;;;;;;;;;;;;;;;;5021800;28;20775;-84
2020/12/11 06:52:31;;;;;;;;;;;;;;;;;;5036548;28;20439;-84
2020/12/11 06:54:57;;;;;;;;;;;;;;;;;;5030930;28;20398;-84
2020/12/11 06:57:24;;;;;;;;;;;;;;;;;;5038018;28;20384;-84
2020/12/11 06:59:50;;;;;;;;;;;;;;;;;;5060801;28;20390;-84
2020/12/11 07:02:16;;;;;;;;;;;;;;;;;;5038898;28;20488;-84
2020/12/11 07:04:43;;;;;;;;;;;;;;;;;;5034364;28;20878;-84
2020/12/11 07:07:09;;;;;;;;;;;;;;;;;;5020087;28;20393;-84
2020/12/11 07:09:36;;;;;;;;;;;;;;;;;;5020225;28;20386;-82
2020/12/11 07:12:02;;;;;;;;;;;;;;;;;;5016019;28;20393;-84
2020/12/11 07:14:28;;;;;;;;;;;;;;;;;;5024234;28;20412;-82
2020/12/11 07:16:55;;;;;;;;;;;;;;;;;;5022536;28;20445;-83
2020/12/11 07:19:21;;;;;;;;;;;;;;;;;;5025961;28;20397;-84
2020/12/11 07:21:48;;;;;;;;;;;;;;;;;;5025496;28;20791;-82
2020/12/11 07:24:14;;;;;;;;;;;;;;;;;;5019623;28;20409;-83
2020/12/11 07:26:40;;;;;;;;;;;;;;;;;;5032927;28;20384;-83
2020/12/11 07:29:07;;;;;;;;;;;;;;;;;;5025704;28;20389;-83
2020/12/11 07:31:33;;;;;;;;;;;;;;;;;;5023962;28;20852;-82
2020/12/11 07:33:59;;;;;;;;;;;;;;;;;;5029711;28;20402;-83
2020/12/11 07:36:26;;;;;;;;;;;;;;;;;;5036143;28;20399;-82
2020/12/11 07:38:52;;;;;;;;;;;;;;;;;;5026944;28;20444;-82
2020/12/11 07:41:19;;;;;;;;;;;;;;;;;;5014980;28;20401;-83
2020/12/11 07:43:45;;;;;;;;;;;;;;;;;;5017719;28;20406;-86
2020/12/11 07:46:14;;;;;;;;;;;;;;;;;;5031792;28;20834;-86
2020/12/11 07:48:40;;;;;;;;;;;;;;;;;;5029664;28;20858;-86
2020/12/11 07:51:09;;;;;;;;;;;;;;;;;;5020292;28;20402;-86
2020/12/11 07:53:36;;;;;;;;;;;;;;;;;;5021937;28;20456;-84
2020/12/11 07:56:03;;;;;;;;;;;;;;;;;;5034847;28;20404;-84
2020/12/11 07:58:29;;;;;;;;;;;;;;;;;;5035164;28;20394;-84
2020/12/11 08:00:56;;;;;;;;;;;;;;;;;;5021953;28;20400;-84
2020/12/11 08:03:25;;;;;;;;;;;;;;;;;;5020299;28;20427;-84
2020/12/11 08:05:51;;;;;;;;;;;;;;;;;;5019514;28;20397;-84
2020/12/11 08:08:18;;;;;;;;;;;;;;;;;;5023843;28;20391;-84
2020/12/11 08:10:44;;;;;;;;;;;;;;;;;;5023813;28;20394;-84
2020/12/11 08:13:12;;;;;;;;;;;;;;;;;;5021646;28;20399;-84
2020/12/11 08:15:39;;;;;;;;;;;;;;;;;;5024781;28;20406;-84
2020/12/11 08:18:06;;;;;;;;;;;;;;;;;;5026879;28;20376;-84
2020/12/11 08:20:32;;;;;;;;;;;;;;;;;;5019718;28;20402;-84
2020/12/11 08:22:58;;;;;;;;;;;;;;;;;;5026494;28;20402;-84
2020/12/11 08:25:26;;;;;;;;;;;;;;;;;;5023459;28;20386;-84
2020/12/11 08:27:52;;;;;;;;;;;;;;;;;;5048395;28;20377;-84
2020/12/11 08:30:19;;;;;;;;;;;;;;;;;;5052587;28;20387;-84
2020/12/11 08:32:45;;;;;;;;;;;;;;;;;;5052139;28;20438;-84
2020/12/11 08:35:12;;;;;;;;;;;;;;;;;;5042518;28;20407;-84
2020/12/11 08:37:38;;;;;;;;;;;;;;;;;;5036488;28;20390;-84
2020/12/11 08:40:05;;;;;;;;;;;;;;;;;;5048741;28;20849;-83
2020/12/11 08:42:40;;;;;;;;;;;;;;;;;;5027992;28;20444;-84
2020/12/11 08:45:24;;;;;;;;;;;;;;;;;;5050567;28;20471;-84
2020/12/11 08:48:10;;;;;;;;;;;;;;;;;;5056935;28;20376;-84
2020/12/11 08:50:39;;;;;;;;;;;;;;;;;;5046721;28;20383;-84
2020/12/11 08:53:08;;;;;;;;;;;;;;;;;;5027764;28;20466;-84
2020/12/11 08:55:34;;;;;;;;;;;;;;;;;;5041548;28;20768;-85
2020/12/11 08:58:02;;;;;;;;;;;;;;;;;;5039334;28;20394;-85
2020/12/11 09:00:28;;;;;;;;;;;;;;;;;;5045995;28;20383;-86
2020/12/11 09:02:54;;;;;;;;;;;;;;;;;;5042948;28;20410;-86
2020/12/11 09:05:24;;;;;;;;;;;;;;;;;;5048464;28;20390;-84
2020/12/11 09:07:50;;;;;;;;;;;;;;;;;;5040500;28;20474;-84
2020/12/11 09:10:17;;;;;;;;;;;;;;;;;;5038189;28;20398;-85
2020/12/11 09:12:46;;;;;;;;;;;;;;;;;;5055581;28;20409;-84
2020/12/11 09:15:12;;;;;;;;;;;;;;;;;;5040329;28;20505;-84
2020/12/11 09:17:39;;;;;;;;;;;;;;;;;;5033876;28;20444;-84
2020/12/11 09:20:05;;;;;;;;;;;;;;;;;;5027682;28;20403;-84
2020/12/11 09:22:32;;;;;;;;;;;;;;;;;;5034943;28;20478;-84
2020/12/11 09:24:58;;;;;;;;;;;;;;;;;;5038379;28;20379;-84
2020/12/11 09:27:25;;;;;;;;;;;;;;;;;;5030527;28;20390;-83
2020/12/11 09:29:53;;;;;;;;;;;;;;;;;;5039422;28;20387;-84
2020/12/11 09:32:28;;;;;;;;;;;;;;;;;;5029344;28;20407;-85
2020/12/11 09:34:54;;;;;;;;;;;;;;;;;;5043331;28;20402;-85
2020/12/11 09:37:21;;;;;;;;;;;;;;;;;;5027565;28;20383;-85
2020/12/11 09:39:47;;;;;;;;;;;;;;;;;;5017577;28;20389;-85
2020/12/11 09:42:28;;;;;;;;;;;;;;;;;;5021593;28;20501;-85
2020/12/11 09:45:07;;;;;;;;;;;;;;;;;;5021763;28;20387;-84
2020/12/11 09:47:46;;;;;;;;;;;;;;;;;;5014381;28;20413;-85
2020/12/11 09:53:11;;;;;;;;;;;;;;;;;;5033673;28;20786;-85
2020/12/11 10:03:58;;;;;;;;;;;;;;;;;;4975222;28;20875;-84
2020/12/11 10:11:53;;;;;;;;;;;;;;;;;;4972250;28;20492;-84
2020/12/11 10:25:17;;;;;;;;;;;;;;;;;;4974002;28;20506;-83
2020/12/11 10:33:10;;;;;;;;;;;;;;;;;;4955185;29;20424;-82
2020/12/11 10:35:39;;;;;;;;;;;;;;;;;;4966846;28;20808;-83
2020/12/11 10:38:05;;;;;;;;;;;;;;;;;;4983145;28;20393;-83
2020/12/11 10:40:31;;;;;;;;;;;;;;;;;;4993152;28;20385;-85
2020/12/11 10:43:00;;;;;;;;;;;;;;;;;;4987428;28;20446;-83
2020/12/11 10:45:26;;;;;;;;;;;;;;;;;;4984672;28;20406;-83
2020/12/11 10:47:55;;;;;;;;;;;;;;;;;;4981614;28;20931;-83
2020/12/11 10:50:21;;;;;;;;;;;;;;;;;;5007997;28;20404;-83
2020/12/11 10:52:49;;;;;;;;;;;;;;;;;;5002790;28;20412;-85
2020/12/11 10:55:15;;;;;;;;;;;;;;;;;;4987926;28;20406;-82
2020/12/11 10:57:42;;;;;;;;;;;;;;;;;;4990569;28;20451;-83
2020/12/11 11:00:08;;;;;;;;;;;;;;;;;;4993043;28;20438;-83
2020/12/11 11:02:35;;;;;;;;;;;;;;;;;;5002733;28;20413;-83
2020/12/11 11:05:01;;;;;;;;;;;;;;;;;;5016025;28;20816;-83
2020/12/11 11:07:29;;;;;;;;;;;;;;;;;;5002439;28;20385;-85
2020/12/11 11:10:05;;;;;;;;;;;;;;;;;;5004775;28;20396;-82
2020/12/11 11:12:36;;;;;;;;;;;;;;;;;;4983079;28;20422;-82
2020/12/11 11:21:05;;;;;;;;;;;;;;;;;;4952226;28;20526;-83
2020/12/11 11:23:58;;;;;;;;;;;;;;;;;;5027892;22;20903;-81
2020/12/11 11:26:32;;;;;;;;;;;;;;;;;;5040720;28;20461;-82
2020/12/11 11:28:59;;;;;;;;;;;;;;;;;;5024987;28;20378;-81
2020/12/11 11:31:25;;;;;;;;;;;;;;;;;;5025806;28;20398;-82
2020/12/11 11:33:52;;;;;;;;;;;;;;;;;;5021025;28;20816;-81
2020/12/11 11:36:18;;;;;;;;;;;;;;;;;;5037436;28;20548;-82
2020/12/11 11:38:44;;;;;;;;;;;;;;;;;;5040725;28;20449;-82
2020/12/11 11:41:11;;;;;;;;;;;;;;;;;;5040243;28;20750;-82
2020/12/11 11:43:57;;;;;;;;;;;;;;;;;;5040685;28;20382;-83
2020/12/11 11:46:23;;;;;;;;;;;;;;;;;;5039767;28;20877;-82
2020/12/11 11:48:50;;;;;;;;;;;;;;;;;;5040829;28;20460;-82
2020/12/11 11:51:19;;;;;;;;;;;;;;;;;;5040859;28;20390;-81
2020/12/11 11:53:45;;;;;;;;;;;;;;;;;;5046594;28;20411;-83
2020/12/11 11:56:12;;;;;;;;;;;;;;;;;;5043186;28;20402;-82
2020/12/11 11:58:38;;;;;;;;;;;;;;;;;;5042810;28;20391;-83
2020/12/11 12:01:05;;;;;;;;;;;;;;;;;;5040087;28;20390;-83
2020/12/11 12:03:31;;;;;;;;;;;;;;;;;;5039226;28;20441;-83
2020/12/11 12:05:58;;;;;;;;;;;;;;;;;;5039254;28;20391;-83
2020/12/11 12:08:24;;;;;;;;;;;;;;;;;;5051939;28;20387;-84
2020/12/11 12:10:59;;;;;;;;;;;;;;;;;;5047026;28;20383;-84
2020/12/11 12:13:25;;;;;;;;;;;;;;;;;;5055932;28;20411;-83
2020/12/11 12:15:54;;;;;;;;;;;;;;;;;;5056820;28;20407;-83
2020/12/11 12:18:20;;;;;;;;;;;;;;;;;;5053658;28;20502;-82
2020/12/11 12:20:52;;;;;;;;;;;;;;;;;;5056222;28;20383;-82
2020/12/11 12:24:07;;;;;;;;;;;;;;;;;;5054370;28;20391;-83
2020/12/11 12:29:01;;;;;;;;;;;;;;;;;;5052972;28;20382;-82
2020/12/11 12:31:33;;;;;;;;;;;;;;;;;;5056850;28;20441;-80
2020/12/11 12:44:57;;;;;;;;;;;;;;;;;;5050048;28;20399;-80
2020/12/11 12:47:23;;;;;;;;;;;;;;;;;;5055702;28;20430;-80
2020/12/11 12:49:49;;;;;;;;;;;;;;;;;;5061151;28;20422;-80
2020/12/11 12:52:16;;;;;;;;;;;;;;;;;;5056476;28;20431;-79
2020/12/11 12:54:42;;;;;;;;;;;;;;;;;;5054989;28;20407;-78
2020/12/11 12:57:14;;;;;;;;;;;;;;;;;;5055440;28;20429;-78
2020/12/11 12:59:46;;;;;;;;;;;;;;;;;;5057565;28;20401;-80
2020/12/11 13:02:42;;;;;;;;;;;;;;;;;;5060149;28;20363;-79
2020/12/11 13:05:08;;;;;;;;;;;;;;;;;;5078449;28;20384;-79
2020/12/11 13:07:35;;;;;;;;;;;;;;;;;;5073977;28;20367;-80
2020/12/11 13:10:01;;;;;;;;;;;;;;;;;;5058443;28;20391;-79
2020/12/11 13:12:28;;;;;;;;;;;;;;;;;;5056150;28;20387;-79
2020/12/11 13:14:54;;;;;;;;;;;;;;;;;;5058508;28;20478;-79
2020/12/11 13:17:21;;;;;;;;;;;;;;;;;;5070413;28;20379;-80
2020/12/11 13:19:47;;;;;;;;;;;;;;;;;;5058264;28;20434;-79
2020/12/11 13:22:27;;;;;;;;;;;;;;;;;;5060423;28;20395;-79
2020/12/11 13:27:38;;;;;;;;;;;;;;;;;;5059796;28;20385;-81
2020/12/11 13:30:04;;;;;;;;;;;;;;;;;;5060870;28;20380;-81
2020/12/11 13:32:31;;;;;;;;;;;;;;;;;;5077458;28;20399;-81
2020/12/11 13:34:57;;;;;;;;;;;;;;;;;;5071897;28;20408;-80
2020/12/11 13:37:28;;;;;;;;;;;;;;;;;;5075995;28;20395;-81
2020/12/11 13:39:54;;;;;;;;;;;;;;;;;;5075137;28;20384;-80
2020/12/11 13:42:21;;;;;;;;;;;;;;;;;;5071499;28;20380;-80
2020/12/11 13:44:47;;;;;;;;;;;;;;;;;;5065476;28;20400;-81
2020/12/11 13:47:14;;;;;;;;;;;;;;;;;;5044260;28;20390;-82
2020/12/11 13:49:40;;;;;;;;;;;;;;;;;;5040142;28;20380;-82
2020/12/11 13:52:06;;;;;;;;;;;;;;;;;;5041770;28;20394;-82
2020/12/11 13:54:33;;;;;;;;;;;;;;;;;;5039790;28;20415;-84
2020/12/11 13:56:59;;;;;;;;;;;;;;;;;;5038860;28;20386;-84
2020/12/11 13:59:26;;;;;;;;;;;;;;;;;;5040480;28;20387;-84
2020/12/11 14:01:52;;;;;;;;;;;;;;;;;;5039907;28;20386;-84
2020/12/11 14:04:20;;;;;;;;;;;;;;;;;;5039251;28;20414;-82
2020/12/11 14:06:47;;;;;;;;;;;;;;;;;;5039487;28;20928;-83
2020/12/11 14:09:13;;;;;;;;;;;;;;;;;;5038337;28;20417;-85
2020/12/11 14:11:40;;;;;;;;;;;;;;;;;;5038174;28;20438;-82
2020/12/11 14:14:06;;;;;;;;;;;;;;;;;;5037113;28;20410;-82
2020/12/11 14:16:39;;;;;;;;;;;;;;;;;;5037867;28;20413;-83
2020/12/11 14:19:22;;;;;;;;;;;;;;;;;;5037995;28;20433;-83
2020/12/11 14:21:50;;;;;;;;;;;;;;;;;;5038553;28;20855;-83
2020/12/11 14:24:17;;;;;;;;;;;;;;;;;;5035346;28;20450;-83
2020/12/11 14:26:46;;;;;;;;;;;;;;;;;;5037510;28;20393;-83
2020/12/11 14:29:12;;;;;;;;;;;;;;;;;;5036898;28;20403;-83
2020/12/11 14:31:39;;;;;;;;;;;;;;;;;;5051493;28;20387;-83
2020/12/11 14:34:05;;;;;;;;;;;;;;;;;;5066825;28;20403;-83
2020/12/11 14:36:31;;;;;;;;;;;;;;;;;;5057858;28;20395;-82
2020/12/11 14:39:01;;;;;;;;;;;;;;;;;;5040394;28;20798;-84
2020/12/11 14:41:27;;;;;;;;;;;;;;;;;;5037073;28;20412;-84
2020/12/11 14:43:55;;;;;;;;;;;;;;;;;;5041747;28;20433;-84
2020/12/11 14:46:21;;;;;;;;;;;;;;;;;;5044638;28;20859;-82
2020/12/11 14:48:47;;;;;;;;;;;;;;;;;;5037641;28;20433;-83
2020/12/11 14:51:14;;;;;;;;;;;;;;;;;;5036397;28;20391;-84
2020/12/11 14:53:40;;;;;;;;;;;;;;;;;;5047214;28;20472;-84
2020/12/11 14:56:07;;;;;;;;;;;;;;;;;;5045068;28;20407;-85
2020/12/11 14:58:40;;;;;;;;;;;;;;;;;;5041158;28;20398;-83
2020/12/11 15:01:10;;;;;;;;;;;;;;;;;;5048210;28;20382;-81
2020/12/11 15:03:36;;;;;;;;;;;;;;;;;;5054019;28;20357;-82
2020/12/11 15:06:02;;;;;;;;;;;;;;;;;;5052756;28;20422;-82
2020/12/11 15:08:29;;;;;;;;;;;;;;;;;;5041871;28;20398;-85
2020/12/11 15:10:55;;;;;;;;;;;;;;;;;;5040144;28;20389;-85
2020/12/11 15:13:22;;;;;;;;;;;;;;;;;;5039202;28;20394;-83
2020/12/11 15:15:50;;;;;;;;;;;;;;;;;;5046069;28;20396;-83
2020/12/11 15:18:16;;;;;;;;;;;;;;;;;;5049893;28;20385;-84
2020/12/11 15:20:42;;;;;;;;;;;;;;;;;;5046526;28;20480;-84
2020/12/11 15:23:09;;;;;;;;;;;;;;;;;;5042744;28;20428;-84
2020/12/11 15:25:35;;;;;;;;;;;;;;;;;;5043952;28;20402;-85
2020/12/11 15:28:03;;;;;;;;;;;;;;;;;;5050528;28;20380;-84
2020/12/11 15:30:29;;;;;;;;;;;;;;;;;;5061706;28;20770;-84
2020/12/11 15:32:56;;;;;;;;;;;;;;;;;;5045612;28;20397;-84
2020/12/11 15:35:22;;;;;;;;;;;;;;;;;;5041278;28;20411;-81
2020/12/11 15:37:49;;;;;;;;;;;;;;;;;;5038799;28;20431;-83
2020/12/11 15:40:15;;;;;;;;;;;;;;;;;;5030524;28;20790;-83
2020/12/11 15:42:42;;;;;;;;;;;;;;;;;;5040462;28;20452;-80
2020/12/11 15:45:08;;;;;;;;;;;;;;;;;;5044853;28;20407;-85
2020/12/11 15:47:35;;;;;;;;;;;;;;;;;;5049646;28;20380;-83
2020/12/11 15:50:01;;;;;;;;;;;;;;;;;;5039089;28;20442;-83
2020/12/11 15:52:28;;;;;;;;;;;;;;;;;;5038488;28;20410;-83
2020/12/11 15:54:54;;;;;;;;;;;;;;;;;;5041799;28;20421;-86
2020/12/11 15:57:21;;;;;;;;;;;;;;;;;;5040410;28;20396;-84
2020/12/11 15:59:48;;;;;;;;;;;;;;;;;;5042770;28;20834;-83
2020/12/11 16:02:15;;;;;;;;;;;;;;;;;;5041391;28;20348;-81
2020/12/11 16:04:41;;;;;;;;;;;;;;;;;;5039264;28;20422;-82
2020/12/11 16:07:08;;;;;;;;;;;;;;;;;;5053793;28;20384;-86
2020/12/11 16:09:34;;;;;;;;;;;;;;;;;;5032344;28;20390;-83
2020/12/11 16:12:02;;;;;;;;;;;;;;;;;;5059500;28;20371;-82
2020/12/11 16:14:30;;;;;;;;;;;;;;;;;;5060027;28;20379;-81
2020/12/11 16:16:59;;;;;;;;;;;;;;;;;;5065838;28;20390;-80
2020/12/11 16:19:26;;;;;;;;;;;;;;;;;;5042242;28;20386;-83
2020/12/11 16:21:52;;;;;;;;;;;;;;;;;;5040235;28;20399;-82
2020/12/11 16:24:23;;;;;;;;;;;;;;;;;;5039040;28;20418;-81
2020/12/11 16:26:52;;;;;;;;;;;;;;;;;;5054135;28;20388;-83
2020/12/11 16:29:20;;;;;;;;;;;;;;;;;;5050901;28;20426;-79
2020/12/11 16:31:47;;;;;;;;;;;;;;;;;;5051972;28;20417;-82
2020/12/11 16:34:15;;;;;;;;;;;;;;;;;;5042574;28;20489;-80
2020/12/11 16:36:42;;;;;;;;;;;;;;;;;;5048637;28;20452;-82
2020/12/11 16:39:08;;;;;;;;;;;;;;;;;;5047175;28;20477;-81
2020/12/11 16:41:35;;;;;;;;;;;;;;;;;;5038404;28;20405;-81
2020/12/11 16:44:06;;;;;;;;;;;;;;;;;;5034418;28;20458;-82
2020/12/11 16:46:32;;;;;;;;;;;;;;;;;;5039272;28;20387;-81
2020/12/11 16:49:03;;;;;;;;;;;;;;;;;;5035336;28;20391;-82
2020/12/11 16:51:29;;;;;;;;;;;;;;;;;;5039151;28;20398;-83
2020/12/11 16:54:01;;;;;;;;;;;;;;;;;;5040838;28;20411;-82
2020/12/11 16:56:32;;;;;;;;;;;;;;;;;;5029409;28;20457;-82
2020/12/11 16:59:01;;;;;;;;;;;;;;;;;;5040843;28;20391;-84
2020/12/11 17:01:32;;;;;;;;;;;;;;;;;;5038854;28;20442;-81
2020/12/11 17:04:02;;;;;;;;;;;;;;;;;;5029195;28;20809;-82
2020/12/11 17:09:12;;;;;;;;;;;;;;;;;;5050356;28;20379;-82
2020/12/11 17:11:38;;;;;;;;;;;;;;;;;;5051022;28;20383;-84
2020/12/11 17:14:05;;;;;;;;;;;;;;;;;;5040434;28;20406;-82
2020/12/11 17:16:31;;;;;;;;;;;;;;;;;;5033971;28;20461;-82
2020/12/11 17:18:58;;;;;;;;;;;;;;;;;;5035778;28;20378;-82
2020/12/11 17:21:24;;;;;;;;;;;;;;;;;;5036524;28;20398;-82
2020/12/11 17:23:51;;;;;;;;;;;;;;;;;;5036468;28;20410;-82
2020/12/11 17:26:22;;;;;;;;;;;;;;;;;;5036320;28;20830;-81
2020/12/11 17:28:48;;;;;;;;;;;;;;;;;;5034974;28;20720;-81
2020/12/11 17:31:21;;;;;;;;;;;;;;;;;;5043548;28;20398;-81
2020/12/11 17:33:51;;;;;;;;;;;;;;;;;;5035857;28;20879;-82
2020/12/11 17:36:17;;;;;;;;;;;;;;;;;;5039162;28;20780;-83
2020/12/11 17:38:44;;;;;;;;;;;;;;;;;;5050233;28;20422;-81
2020/12/11 17:41:10;;;;;;;;;;;;;;;;;;5034951;28;20397;-81
2020/12/11 17:43:37;;;;;;;;;;;;;;;;;;5035196;28;20786;-82
2020/12/11 17:46:03;;;;;;;;;;;;;;;;;;5047834;28;20383;-78